Damascus, Missouri
Current Conditions -  °F | °C
As of 5:55 AM on Monday 22 Dec 2014 (Local Time) from KGLY Reporting Station
Drizzle Drizzle  
Wind Chill: 38°   Ceiling: 1800
Heat Index: 43°   Visibility: 5mi
Dew Point: 39°   Wind: 8mph
Humidity: 87%   Direction: 140°SE
Pressure: 29.66"   Gusts: NA
Location:  38.0329°N, 93.7861°W
Report Text: KGLY 221155Z AUTO 14007KT 5SM -DZ OVC018 06/04 A2966 RMK AO2
Loading
Personal Weather Stations






























Interactive Weather Map New forecast layout! Learn more

10-Day Weather Forecast

Advertisements
Track Severe Weather on mobile